Terminal Aerodrome Forecast
Issued by NWS Sioux Falls, SD

Home | Current Version | Previous Version | Text Only | Print | Product List | Glossary On
Versions: 1 2 3 4 5 6 7 8 9 10 11 12 13 14 15 16 17 18 19 20 21 22
000
FTUS43 KFSD 161012 AAB
TAFSUX
TAF AMD
KSUX 161012Z 1610/1706 11005KT 6SM -SHRA BR BKN025 OVC080
     FM161100 14008KT 5SM TSRA BR BKN015CB OVC050
     FM161700 19008KT P6SM SCT025 OVC050
     FM162000 25005KT P6SM BKN050
     FM170000 31007KT P6SM BKN090=

USA.gov is the U.S. government's official web portal to all federal, state and local government web resources and services.